sensor_id;sensor_type;location;lat;lon;timestamp;temperature;humidity
6930;DHT22;3504;52.616;13.238;2023-05-07T00:02:08;9.35;83.16
6930;DHT22;3504;52.616;13.238;2023-05-07T00:07:08;9.39;83.14
6930;DHT22;3504;52.616;13.238;2023-05-07T00:12:09;9.34;83.17
6930;DHT22;3504;52.616;13.238;2023-05-07T00:17:10;9.38;83.05
6930;DHT22;3504;52.616;13.238;2023-05-07T00:22:10;9.39;83.01
6930;DHT22;3504;52.616;13.238;2023-05-07T00:27:11;9.36;83.02
6930;DHT22;3504;52.616;13.238;2023-05-07T00:32:12;9.36;83.27
6930;DHT22;3504;52.616;13.238;2023-05-07T00:37:12;9.35;83.01
6930;DHT22;3504;52.616;13.238;2023-05-07T00:42:13;9.35;83.15
6930;DHT22;3504;52.616;13.238;2023-05-07T00:47:15;9.39;82.78
6930;DHT22;3504;52.616;13.238;2023-05-07T00:52:17;9.42;82.68
6930;DHT22;3504;52.616;13.238;2023-05-07T00:57:20;9.39;82.72
6930;DHT22;3504;52.616;13.238;2023-05-07T01:02:21;9.41;82.68
6930;DHT22;3504;52.616;13.238;2023-05-07T01:07:22;9.42;82.73
6930;DHT22;3504;52.616;13.238;2023-05-07T01:12:24;9.42;82.59
6930;DHT22;3504;52.616;13.238;2023-05-07T01:17:25;9.43;82.53
6930;DHT22;3504;52.616;13.238;2023-05-07T01:22:38;9.43;82.25
6930;DHT22;3504;52.616;13.238;2023-05-07T01:27:41;9.32;82.50
6930;DHT22;3504;52.616;13.238;2023-05-07T01:37:49;9.38;82.55
6930;DHT22;3504;52.616;13.238;2023-05-07T01:42:50;9.30;82.40
6930;DHT22;3504;52.616;13.238;2023-05-07T01:47:51;9.22;82.40
6930;DHT22;3504;52.616;13.238;2023-05-07T01:52:53;9.21;82.86
6930;DHT22;3504;52.616;13.238;2023-05-07T01:57:53;9.22;82.73
6930;DHT22;3504;52.616;13.238;2023-05-07T02:02:54;9.24;82.69
6930;DHT22;3504;52.616;13.238;2023-05-07T02:08:04;9.20;82.49
6930;DHT22;3504;52.616;13.238;2023-05-07T02:13:05;9.20;82.42
6930;DHT22;3504;52.616;13.238;2023-05-07T02:18:08;9.20;82.35
6930;DHT22;3504;52.616;13.238;2023-05-07T02:23:12;9.15;82.29
6930;DHT22;3504;52.616;13.238;2023-05-07T02:28:13;9.12;82.09
6930;DHT22;3504;52.616;13.238;2023-05-07T02:33:35;9.24;82.18
6930;DHT22;3504;52.616;13.238;2023-05-07T02:38:38;9.28;82.20
6930;DHT22;3504;52.616;13.238;2023-05-07T02:43:39;9.20;81.73
6930;DHT22;3504;52.616;13.238;2023-05-07T02:48:40;9.20;81.87
6930;DHT22;3504;52.616;13.238;2023-05-07T02:53:41;9.20;81.53
6930;DHT22;3504;52.616;13.238;2023-05-07T02:58:42;9.21;81.66
6930;DHT22;3504;52.616;13.238;2023-05-07T03:03:44;9.22;81.43
6930;DHT22;3504;52.616;13.238;2023-05-07T03:08:44;9.17;81.45
6930;DHT22;3504;52.616;13.238;2023-05-07T03:13:45;9.12;81.30
6930;DHT22;3504;52.616;13.238;2023-05-07T03:18:46;9.15;81.40
6930;DHT22;3504;52.616;13.238;2023-05-07T03:23:46;9.07;81.00
6930;DHT22;3504;52.616;13.238;2023-05-07T03:28:47;9.08;81.10
6930;DHT22;3504;52.616;13.238;2023-05-07T03:33:55;9.05;81.26
6930;DHT22;3504;52.616;13.238;2023-05-07T03:38:56;9.12;81.02
6930;DHT22;3504;52.616;13.238;2023-05-07T03:43:59;9.11;80.91
6930;DHT22;3504;52.616;13.238;2023-05-07T03:49:00;9.14;80.87
6930;DHT22;3504;52.616;13.238;2023-05-07T03:54:01;9.12;80.47
6930;DHT22;3504;52.616;13.238;2023-05-07T03:59:05;9.18;80.63
6930;DHT22;3504;52.616;13.238;2023-05-07T04:04:05;9.24;80.38
6930;DHT22;3504;52.616;13.238;2023-05-07T04:09:08;9.25;80.36
6930;DHT22;3504;52.616;13.238;2023-05-07T04:14:11;9.20;80.35
6930;DHT22;3504;52.616;13.238;2023-05-07T04:19:11;9.21;80.33
6930;DHT22;3504;52.616;13.238;2023-05-07T04:24:13;9.22;80.41
6930;DHT22;3504;52.616;13.238;2023-05-07T04:29:14;9.21;80.41
6930;DHT22;3504;52.616;13.238;2023-05-07T04:34:15;9.17;80.09
6930;DHT22;3504;52.616;13.238;2023-05-07T04:39:16;9.21;80.03
6930;DHT22;3504;52.616;13.238;2023-05-07T04:44:20;9.22;80.04
6930;DHT22;3504;52.616;13.238;2023-05-07T04:49:22;9.27;80.09
6930;DHT22;3504;52.616;13.238;2023-05-07T04:54:26;9.30;80.18
6930;DHT22;3504;52.616;13.238;2023-05-07T04:59:27;9.35;80.02
6930;DHT22;3504;52.616;13.238;2023-05-07T05:04:28;9.39;79.93
6930;DHT22;3504;52.616;13.238;2023-05-07T05:09:29;9.35;79.35
6930;DHT22;3504;52.616;13.238;2023-05-07T05:14:29;9.48;78.90
6930;DHT22;3504;52.616;13.238;2023-05-07T05:19:30;9.53;79.06
6930;DHT22;3504;52.616;13.238;2023-05-07T05:24:31;9.55;78.78
6930;DHT22;3504;52.616;13.238;2023-05-07T05:29:32;9.46;78.60
6930;DHT22;3504;52.616;13.238;2023-05-07T05:34:33;9.45;78.12
6930;DHT22;3504;52.616;13.238;2023-05-07T05:39:35;9.53;78.07
6930;DHT22;3504;52.616;13.238;2023-05-07T05:44:36;9.61;78.24
6930;DHT22;3504;52.616;13.238;2023-05-07T05:49:36;9.79;77.81
6930;DHT22;3504;52.616;13.238;2023-05-07T05:54:38;9.89;77.35
6930;DHT22;3504;52.616;13.238;2023-05-07T05:59:39;10.06;76.61
6930;DHT22;3504;52.616;13.238;2023-05-07T06:04:40;10.03;76.34
6930;DHT22;3504;52.616;13.238;2023-05-07T06:09:41;10.24;75.63
6930;DHT22;3504;52.616;13.238;2023-05-07T06:14:43;10.46;74.67
6930;DHT22;3504;52.616;13.238;2023-05-07T06:19:45;10.72;73.75
6930;DHT22;3504;52.616;13.238;2023-05-07T06:24:47;10.78;73.87
6930;DHT22;3504;52.616;13.238;2023-05-07T06:29:48;11.09;73.34
6930;DHT22;3504;52.616;13.238;2023-05-07T06:34:51;11.54;70.66
6930;DHT22;3504;52.616;13.238;2023-05-07T06:39:53;11.78;70.38
6930;DHT22;3504;52.616;13.238;2023-05-07T06:44:53;11.64;70.96
6930;DHT22;3504;52.616;13.238;2023-05-07T06:49:54;11.88;70.47
6930;DHT22;3504;52.616;13.238;2023-05-07T06:54:58;12.18;69.63
6930;DHT22;3504;52.616;13.238;2023-05-07T07:00:00;11.82;69.34
6930;DHT22;3504;52.616;13.238;2023-05-07T07:05:01;11.74;69.57
6930;DHT22;3504;52.616;13.238;2023-05-07T07:10:02;11.77;69.99
6930;DHT22;3504;52.616;13.238;2023-05-07T07:15:05;12.04;69.11
6930;DHT22;3504;52.616;13.238;2023-05-07T07:20:07;11.95;70.11
6930;DHT22;3504;52.616;13.238;2023-05-07T07:25:08;11.88;67.99
6930;DHT22;3504;52.616;13.238;2023-05-07T07:30:10;12.24;68.50
6930;DHT22;3504;52.616;13.238;2023-05-07T07:35:13;12.60;68.35
6930;DHT22;3504;52.616;13.238;2023-05-07T07:40:14;12.84;65.75
6930;DHT22;3504;52.616;13.238;2023-05-07T07:45:15;12.88;65.02
6930;DHT22;3504;52.616;13.238;2023-05-07T07:50:20;13.08;66.31
6930;DHT22;3504;52.616;13.238;2023-05-07T07:55:22;13.49;65.69
6930;DHT22;3504;52.616;13.238;2023-05-07T08:00:25;13.59;62.95
6930;DHT22;3504;52.616;13.238;2023-05-07T08:05:29;13.82;63.71
6930;DHT22;3504;52.616;13.238;2023-05-07T08:10:32;14.10;60.57
6930;DHT22;3504;52.616;13.238;2023-05-07T08:15:39;14.04;60.89
6930;DHT22;3504;52.616;13.238;2023-05-07T08:20:40;14.16;60.61
6930;DHT22;3504;52.616;13.238;2023-05-07T08:25:45;14.16;61.38
6930;DHT22;3504;52.616;13.238;2023-05-07T08:30:47;14.65;59.17
6930;DHT22;3504;52.616;13.238;2023-05-07T08:35:47;14.78;57.31
6930;DHT22;3504;52.616;13.238;2023-05-07T08:40:49;14.69;57.48
6930;DHT22;3504;52.616;13.238;2023-05-07T08:45:54;14.78;58.80
6930;DHT22;3504;52.616;13.238;2023-05-07T08:50:58;14.93;56.43
6930;DHT22;3504;52.616;13.238;2023-05-07T08:56:00;15.36;54.63
6930;DHT22;3504;52.616;13.238;2023-05-07T09:01:09;15.26;56.15
6930;DHT22;3504;52.616;13.238;2023-05-07T09:06:11;15.50;55.17
6930;DHT22;3504;52.616;13.238;2023-05-07T09:11:12;15.70;54.45
6930;DHT22;3504;52.616;13.238;2023-05-07T09:16:14;15.94;55.58
6930;DHT22;3504;52.616;13.238;2023-05-07T09:21:18;16.19;54.71
6930;DHT22;3504;52.616;13.238;2023-05-07T09:26:24;16.32;55.04
6930;DHT22;3504;52.616;13.238;2023-05-07T09:31:26;15.60;54.39
6930;DHT22;3504;52.616;13.238;2023-05-07T09:36:28;15.43;56.29
6930;DHT22;3504;52.616;13.238;2023-05-07T09:41:30;16.01;56.32
6930;DHT22;3504;52.616;13.238;2023-05-07T09:46:54;16.49;53.22
6930;DHT22;3504;52.616;13.238;2023-05-07T09:52:03;16.77;54.17
6930;DHT22;3504;52.616;13.238;2023-05-07T09:57:11;17.11;52.60
6930;DHT22;3504;52.616;13.238;2023-05-07T10:02:14;17.54;50.56
6930;DHT22;3504;52.616;13.238;2023-05-07T10:07:21;16.66;50.95
6930;DHT22;3504;52.616;13.238;2023-05-07T10:12:24;16.92;53.35
6930;DHT22;3504;52.616;13.238;2023-05-07T10:17:25;16.93;51.19
6930;DHT22;3504;52.616;13.238;2023-05-07T10:22:27;16.41;51.52
6930;DHT22;3504;52.616;13.238;2023-05-07T10:27:30;16.52;51.98
6930;DHT22;3504;52.616;13.238;2023-05-07T10:32:43;16.17;52.12
6930;DHT22;3504;52.616;13.238;2023-05-07T10:37:51;15.98;52.66
6930;DHT22;3504;52.616;13.238;2023-05-07T10:43:02;15.78;52.12
6930;DHT22;3504;52.616;13.238;2023-05-07T10:58:44;16.42;52.85
6930;DHT22;3504;52.616;13.238;2023-05-07T11:04:14;16.52;51.23
6930;DHT22;3504;52.616;13.238;2023-05-07T11:09:16;16.70;52.57
6930;DHT22;3504;52.616;13.238;2023-05-07T11:14:44;16.97;49.39
6930;DHT22;3504;52.616;13.238;2023-05-07T11:19:55;17.06;50.52
6930;DHT22;3504;52.616;13.238;2023-05-07T11:25:08;17.14;50.07
6930;DHT22;3504;52.616;13.238;2023-05-07T11:30:11;17.35;51.23
6930;DHT22;3504;52.616;13.238;2023-05-07T11:35:17;17.76;46.04
6930;DHT22;3504;52.616;13.238;2023-05-07T11:40:20;18.17;45.86
6930;DHT22;3504;52.616;13.238;2023-05-07T11:45:24;17.75;46.74
6930;DHT22;3504;52.616;13.238;2023-05-07T11:50:27;17.45;48.14
6930;DHT22;3504;52.616;13.238;2023-05-07T11:55:28;17.45;46.32
6930;DHT22;3504;52.616;13.238;2023-05-07T12:00:28;17.23;46.05
6930;DHT22;3504;52.616;13.238;2023-05-07T12:05:29;17.00;47.96
6930;DHT22;3504;52.616;13.238;2023-05-07T12:10:30;17.08;48.36
6930;DHT22;3504;52.616;13.238;2023-05-07T12:15:30;17.39;48.32
6930;DHT22;3504;52.616;13.238;2023-05-07T12:20:31;17.46;48.28
6930;DHT22;3504;52.616;13.238;2023-05-07T12:25:43;17.76;46.32
6930;DHT22;3504;52.616;13.238;2023-05-07T12:30:48;17.96;46.29
6930;DHT22;3504;52.616;13.238;2023-05-07T12:35:49;17.92;48.12
6930;DHT22;3504;52.616;13.238;2023-05-07T12:40:53;17.96;45.91
6930;DHT22;3504;52.616;13.238;2023-05-07T12:45:57;17.65;46.93
6930;DHT22;3504;52.616;13.238;2023-05-07T12:51:00;17.71;46.85
6930;DHT22;3504;52.616;13.238;2023-05-07T12:56:00;17.89;46.56
6930;DHT22;3504;52.616;13.238;2023-05-07T13:01:07;17.81;46.39
6930;DHT22;3504;52.616;13.238;2023-05-07T13:06:09;17.79;46.06
6930;DHT22;3504;52.616;13.238;2023-05-07T13:11:11;17.51;45.28
6930;DHT22;3504;52.616;13.238;2023-05-07T13:16:12;17.69;46.28
6930;DHT22;3504;52.616;13.238;2023-05-07T13:21:12;17.75;46.55
6930;DHT22;3504;52.616;13.238;2023-05-07T13:26:13;17.56;46.24
6930;DHT22;3504;52.616;13.238;2023-05-07T13:31:14;17.97;46.79
6930;DHT22;3504;52.616;13.238;2023-05-07T13:36:14;17.81;45.74
6930;DHT22;3504;52.616;13.238;2023-05-07T13:41:15;17.97;45.23
6930;DHT22;3504;52.616;13.238;2023-05-07T13:46:16;17.54;45.63
6930;DHT22;3504;52.616;13.238;2023-05-07T13:51:16;17.11;46.00
6930;DHT22;3504;52.616;13.238;2023-05-07T13:56:17;17.14;46.43
6930;DHT22;3504;52.616;13.238;2023-05-07T14:01:17;17.51;47.13
6930;DHT22;3504;52.616;13.238;2023-05-07T14:06:18;17.56;45.27
6930;DHT22;3504;52.616;13.238;2023-05-07T14:11:18;17.23;46.29
6930;DHT22;3504;52.616;13.238;2023-05-07T14:16:19;16.87;46.60
6930;DHT22;3504;52.616;13.238;2023-05-07T14:21:19;16.76;46.82
6930;DHT22;3504;52.616;13.238;2023-05-07T14:26:20;16.73;46.73
6930;DHT22;3504;52.616;13.238;2023-05-07T14:31:21;16.63;46.41
6930;DHT22;3504;52.616;13.238;2023-05-07T14:36:21;16.55;46.50
6930;DHT22;3504;52.616;13.238;2023-05-07T14:41:23;16.60;47.84
6930;DHT22;3504;52.616;13.238;2023-05-07T14:46:23;16.97;45.72
6930;DHT22;3504;52.616;13.238;2023-05-07T14:51:24;17.24;45.43
6930;DHT22;3504;52.616;13.238;2023-05-07T14:56:26;17.10;45.22
6930;DHT22;3504;52.616;13.238;2023-05-07T15:01:27;16.97;46.48
6930;DHT22;3504;52.616;13.238;2023-05-07T15:06:27;16.93;45.06
6930;DHT22;3504;52.616;13.238;2023-05-07T15:11:28;16.83;45.67
6930;DHT22;3504;52.616;13.238;2023-05-07T15:16:29;16.92;45.93
6930;DHT22;3504;52.616;13.238;2023-05-07T15:21:29;16.89;46.36
6930;DHT22;3504;52.616;13.238;2023-05-07T15:26:33;16.89;46.43
6930;DHT22;3504;52.616;13.238;2023-05-07T15:31:34;17.04;46.00
6930;DHT22;3504;52.616;13.238;2023-05-07T15:36:35;16.90;45.85
6930;DHT22;3504;52.616;13.238;2023-05-07T15:41:36;16.74;46.64
6930;DHT22;3504;52.616;13.238;2023-05-07T15:46:37;16.80;46.55
6930;DHT22;3504;52.616;13.238;2023-05-07T15:51:37;16.84;47.03
6930;DHT22;3504;52.616;13.238;2023-05-07T15:56:38;16.72;47.36
6930;DHT22;3504;52.616;13.238;2023-05-07T16:01:38;16.53;47.43
6930;DHT22;3504;52.616;13.238;2023-05-07T16:06:40;16.38;47.05
6930;DHT22;3504;52.616;13.238;2023-05-07T16:11:41;16.22;47.54
6930;DHT22;3504;52.616;13.238;2023-05-07T16:16:42;16.14;48.07
6930;DHT22;3504;52.616;13.238;2023-05-07T16:21:42;16.53;46.99
6930;DHT22;3504;52.616;13.238;2023-05-07T16:26:43;16.74;46.39
6930;DHT22;3504;52.616;13.238;2023-05-07T16:31:43;16.57;46.53
6930;DHT22;3504;52.616;13.238;2023-05-07T16:36:44;16.33;47.13
6930;DHT22;3504;52.616;13.238;2023-05-07T16:41:44;16.05;48.00
6930;DHT22;3504;52.616;13.238;2023-05-07T16:46:47;15.98;48.94
6930;DHT22;3504;52.616;13.238;2023-05-07T16:51:48;15.77;49.34
6930;DHT22;3504;52.616;13.238;2023-05-07T16:56:50;15.71;49.46
6930;DHT22;3504;52.616;13.238;2023-05-07T17:01:50;15.61;50.28
6930;DHT22;3504;52.616;13.238;2023-05-07T17:06:51;15.39;50.22
6930;DHT22;3504;52.616;13.238;2023-05-07T17:11:52;15.15;51.06
6930;DHT22;3504;52.616;13.238;2023-05-07T17:16:52;15.06;51.75
6930;DHT22;3504;52.616;13.238;2023-05-07T17:21:53;15.10;51.18
6930;DHT22;3504;52.616;13.238;2023-05-07T17:26:54;15.19;50.99
6930;DHT22;3504;52.616;13.238;2023-05-07T17:31:54;15.15;49.55
6930;DHT22;3504;52.616;13.238;2023-05-07T17:36:58;15.05;50.53
6930;DHT22;3504;52.616;13.238;2023-05-07T17:41:58;14.88;50.27
6930;DHT22;3504;52.616;13.238;2023-05-07T17:46:59;14.81;51.41
6930;DHT22;3504;52.616;13.238;2023-05-07T17:51:59;14.53;51.57
6930;DHT22;3504;52.616;13.238;2023-05-07T17:57:00;14.33;51.83
6930;DHT22;3504;52.616;13.238;2023-05-07T18:02:00;14.20;51.77
6930;DHT22;3504;52.616;13.238;2023-05-07T18:07:01;14.09;52.17
6930;DHT22;3504;52.616;13.238;2023-05-07T18:12:01;14.14;52.29
6930;DHT22;3504;52.616;13.238;2023-05-07T18:17:02;14.14;52.79
6930;DHT22;3504;52.616;13.238;2023-05-07T18:22:02;14.16;52.86
6930;DHT22;3504;52.616;13.238;2023-05-07T18:27:03;14.13;53.02
6930;DHT22;3504;52.616;13.238;2023-05-07T18:32:04;14.06;53.41
6930;DHT22;3504;52.616;13.238;2023-05-07T18:37:04;13.89;52.84
6930;DHT22;3504;52.616;13.238;2023-05-07T18:42:05;13.76;53.00
6930;DHT22;3504;52.616;13.238;2023-05-07T18:47:07;13.69;53.63
6930;DHT22;3504;52.616;13.238;2023-05-07T18:52:08;13.59;53.94
6930;DHT22;3504;52.616;13.238;2023-05-07T18:57:09;13.49;54.07
6930;DHT22;3504;52.616;13.238;2023-05-07T19:02:10;13.39;54.40
6930;DHT22;3504;52.616;13.238;2023-05-07T19:07:13;13.31;54.23
6930;DHT22;3504;52.616;13.238;2023-05-07T19:12:14;13.20;54.39
6930;DHT22;3504;52.616;13.238;2023-05-07T19:17:14;13.03;54.66
6930;DHT22;3504;52.616;13.238;2023-05-07T19:22:15;12.96;54.54
6930;DHT22;3504;52.616;13.238;2023-05-07T19:27:16;12.84;54.59
6930;DHT22;3504;52.616;13.238;2023-05-07T19:32:16;12.76;54.64
6930;DHT22;3504;52.616;13.238;2023-05-07T19:37:19;12.69;54.91
6930;DHT22;3504;52.616;13.238;2023-05-07T19:42:23;12.73;54.93
6930;DHT22;3504;52.616;13.238;2023-05-07T19:47:23;12.56;54.90
6930;DHT22;3504;52.616;13.238;2023-05-07T19:52:25;12.57;55.00
6930;DHT22;3504;52.616;13.238;2023-05-07T19:57:25;12.50;55.23
6930;DHT22;3504;52.616;13.238;2023-05-07T20:02:26;12.46;55.74
6930;DHT22;3504;52.616;13.238;2023-05-07T20:07:26;12.39;56.21
6930;DHT22;3504;52.616;13.238;2023-05-07T20:12:27;12.29;56.47
6930;DHT22;3504;52.616;13.238;2023-05-07T20:17:27;12.18;56.91
6930;DHT22;3504;52.616;13.238;2023-05-07T20:22:31;12.17;56.75
6930;DHT22;3504;52.616;13.238;2023-05-07T20:27:32;12.09;57.16
6930;DHT22;3504;52.616;13.238;2023-05-07T20:32:34;12.08;57.40
6930;DHT22;3504;52.616;13.238;2023-05-07T20:37:36;12.02;57.57
6930;DHT22;3504;52.616;13.238;2023-05-07T20:42:37;11.98;57.89
6930;DHT22;3504;52.616;13.238;2023-05-07T20:47:37;11.89;58.33
6930;DHT22;3504;52.616;13.238;2023-05-07T20:52:38;11.94;58.63
6930;DHT22;3504;52.616;13.238;2023-05-07T20:57:39;11.84;58.90
6930;DHT22;3504;52.616;13.238;2023-05-07T21:02:39;11.70;59.94
6930;DHT22;3504;52.616;13.238;2023-05-07T21:07:40;11.53;60.85
6930;DHT22;3504;52.616;13.238;2023-05-07T21:12:40;11.48;61.34
6930;DHT22;3504;52.616;13.238;2023-05-07T21:17:41;11.42;61.34
6930;DHT22;3504;52.616;13.238;2023-05-07T21:22:41;11.35;61.01
6930;DHT22;3504;52.616;13.238;2023-05-07T21:27:42;11.29;60.69
6930;DHT22;3504;52.616;13.238;2023-05-07T21:32:42;11.24;60.49
6930;DHT22;3504;52.616;13.238;2023-05-07T21:37:43;11.17;60.63
6930;DHT22;3504;52.616;13.238;2023-05-07T21:42:44;11.15;60.83
6930;DHT22;3504;52.616;13.238;2023-05-07T21:47:44;11.03;61.55
6930;DHT22;3504;52.616;13.238;2023-05-07T21:52:45;10.97;61.83
6930;DHT22;3504;52.616;13.238;2023-05-07T21:57:46;10.99;61.90
6930;DHT22;3504;52.616;13.238;2023-05-07T22:02:46;10.84;62.52
6930;DHT22;3504;52.616;13.238;2023-05-07T22:07:47;10.82;62.77
6930;DHT22;3504;52.616;13.238;2023-05-07T22:12:47;10.76;63.10
6930;DHT22;3504;52.616;13.238;2023-05-07T22:17:48;10.65;63.33
6930;DHT22;3504;52.616;13.238;2023-05-07T22:22:51;10.55;63.99
6930;DHT22;3504;52.616;13.238;2023-05-07T22:27:52;10.52;64.06
6930;DHT22;3504;52.616;13.238;2023-05-07T22:32:52;10.46;63.98
6930;DHT22;3504;52.616;13.238;2023-05-07T22:37:53;10.38;64.36
6930;DHT22;3504;52.616;13.238;2023-05-07T22:42:54;10.37;64.32
6930;DHT22;3504;52.616;13.238;2023-05-07T22:47:54;10.37;64.40
6930;DHT22;3504;52.616;13.238;2023-05-07T22:52:55;10.28;64.71
6930;DHT22;3504;52.616;13.238;2023-05-07T22:57:55;10.17;64.92
6930;DHT22;3504;52.616;13.238;2023-05-07T23:02:56;10.16;65.04
6930;DHT22;3504;52.616;13.238;2023-05-07T23:07:56;10.07;65.51
6930;DHT22;3504;52.616;13.238;2023-05-07T23:12:57;10.03;65.53
6930;DHT22;3504;52.616;13.238;2023-05-07T23:17:58;9.97;65.75
6930;DHT22;3504;52.616;13.238;2023-05-07T23:22:59;9.86;65.88
6930;DHT22;3504;52.616;13.238;2023-05-07T23:27:59;9.78;66.14
6930;DHT22;3504;52.616;13.238;2023-05-07T23:33:00;9.76;66.00
6930;DHT22;3504;52.616;13.238;2023-05-07T23:38:01;9.74;66.12
6930;DHT22;3504;52.616;13.238;2023-05-07T23:43:01;9.69;66.21
6930;DHT22;3504;52.616;13.238;2023-05-07T23:48:02;9.62;66.56
6930;DHT22;3504;52.616;13.238;2023-05-07T23:53:02;9.61;66.75
6930;DHT22;3504;52.616;13.238;2023-05-07T23:58:03;9.46;67.17
